createdAt,value
2019-03-24T00:01:46.829Z,23.87
2019-03-24T00:04:18.111Z,24.32
2019-03-24T00:06:46.775Z,22.27
2019-03-24T00:09:15.452Z,22.50
2019-03-24T00:11:44.170Z,21.82
2019-03-24T00:14:12.840Z,21.73
2019-03-24T00:16:41.561Z,20.95
2019-03-24T00:19:10.234Z,19.80
2019-03-24T00:21:40.142Z,19.87
2019-03-24T00:24:08.905Z,20.27
2019-03-24T00:26:37.563Z,21.95
2019-03-24T00:29:06.212Z,20.37
2019-03-24T00:31:34.950Z,19.75
2019-03-24T00:34:03.691Z,20.48
2019-03-24T00:36:33.045Z,19.92
2019-03-24T00:39:03.102Z,21.35
2019-03-24T00:41:31.768Z,20.10
2019-03-24T00:44:00.430Z,20.12
2019-03-24T00:46:30.373Z,20.08
2019-03-24T00:48:59.033Z,20.12
2019-03-24T00:51:27.812Z,21.37
2019-03-24T00:53:56.477Z,21.45
2019-03-24T00:56:25.131Z,21.12
2019-03-24T00:58:53.785Z,22.32
2019-03-24T01:01:22.515Z,20.10
2019-03-24T01:03:51.173Z,20.02
2019-03-24T01:06:19.903Z,22.35
2019-03-24T01:08:48.575Z,22.05
2019-03-24T01:11:17.234Z,19.27
2019-03-24T01:13:45.902Z,20.82
2019-03-24T01:16:14.563Z,20.20
2019-03-24T01:18:43.226Z,21.00
2019-03-24T01:21:11.881Z,20.35
2019-03-24T01:23:40.545Z,21.23
2019-03-24T01:26:09.283Z,20.35
2019-03-24T01:28:38.003Z,20.15
2019-03-24T01:31:06.669Z,21.52
2019-03-24T01:33:35.399Z,20.35
2019-03-24T01:36:04.140Z,21.20
2019-03-24T01:38:32.790Z,20.70
2019-03-24T01:41:01.518Z,20.75
2019-03-24T01:43:30.251Z,20.23
2019-03-24T01:45:59.101Z,20.27
2019-03-24T01:48:27.736Z,19.45
2019-03-24T01:50:56.427Z,18.82
2019-03-24T01:53:25.086Z,19.40
2019-03-24T01:55:53.741Z,19.17
2019-03-24T01:58:22.408Z,18.20
2019-03-24T02:00:51.237Z,17.65
2019-03-24T02:03:19.898Z,17.48
2019-03-24T02:05:48.561Z,18.12
2019-03-24T02:08:17.222Z,18.45
2019-03-24T02:10:45.869Z,18.17
2019-03-24T02:13:14.542Z,18.55
2019-03-24T02:15:43.189Z,18.30
2019-03-24T02:18:11.849Z,16.65
2019-03-24T02:20:40.569Z,18.90
2019-03-24T02:23:09.307Z,17.00
2019-03-24T02:25:38.050Z,18.00
2019-03-24T02:28:06.875Z,15.48
2019-03-24T02:30:35.532Z,16.67
2019-03-24T02:33:04.207Z,16.62
2019-03-24T02:35:32.880Z,18.20
2019-03-24T02:38:01.550Z,16.73
2019-03-24T02:40:30.204Z,15.60
2019-03-24T02:42:58.843Z,15.70
2019-03-24T02:45:27.517Z,15.48
2019-03-24T02:47:56.165Z,14.47
2019-03-24T02:50:24.848Z,14.10
2019-03-24T02:52:53.507Z,15.25
2019-03-24T02:55:22.204Z,16.07
2019-03-24T02:57:50.853Z,14.45
2019-03-24T03:00:19.647Z,14.90
2019-03-24T03:02:48.386Z,15.03
2019-03-24T03:05:17.292Z,15.30
2019-03-24T03:07:45.954Z,15.68
2019-03-24T03:10:15.051Z,15.90
2019-03-24T03:12:43.719Z,16.87
2019-03-24T03:15:12.521Z,14.50
2019-03-24T03:17:41.341Z,15.95
2019-03-24T03:20:10.422Z,15.70
2019-03-24T03:22:39.145Z,14.98
2019-03-24T03:25:08.742Z,12.75
2019-03-24T03:27:37.465Z,14.25
2019-03-24T03:30:07.474Z,14.28
2019-03-24T03:32:36.289Z,12.90
2019-03-24T03:35:07.469Z,13.38
2019-03-24T03:37:36.181Z,14.70
2019-03-24T03:40:07.801Z,13.38
2019-03-24T03:42:37.114Z,12.58
2019-03-24T03:45:06.133Z,13.20
2019-03-24T03:47:34.777Z,13.22
2019-03-24T03:50:04.419Z,13.15
2019-03-24T03:52:33.071Z,13.00
2019-03-24T03:55:01.714Z,12.35
2019-03-24T03:57:30.385Z,10.98
2019-03-24T03:59:59.030Z,11.38
2019-03-24T04:02:27.711Z,10.98
2019-03-24T04:04:56.433Z,10.82
2019-03-24T04:07:25.769Z,10.88
2019-03-24T04:09:54.494Z,10.72
2019-03-24T04:12:23.163Z,11.20
2019-03-24T04:14:51.824Z,10.78
2019-03-24T04:17:20.568Z,10.32
2019-03-24T04:19:49.211Z,11.33
2019-03-24T04:22:17.909Z,10.95
2019-03-24T04:24:46.555Z,11.33
2019-03-24T04:27:15.211Z,10.55
2019-03-24T04:29:43.874Z,11.80
2019-03-24T04:32:12.531Z,10.30
2019-03-24T04:34:41.203Z,11.25
2019-03-24T04:37:09.856Z,10.85
2019-03-24T04:39:38.510Z,11.43
2019-03-24T04:42:07.159Z,10.75
2019-03-24T04:44:35.828Z,10.40
2019-03-24T04:47:04.545Z,11.80
2019-03-24T04:49:33.206Z,12.25
2019-03-24T04:52:01.854Z,12.05
2019-03-24T04:54:30.518Z,11.15
2019-03-24T04:56:59.241Z,11.90
2019-03-24T04:59:27.922Z,11.93
2019-03-24T05:01:56.659Z,11.00
2019-03-24T05:04:25.309Z,11.50
2019-03-24T05:06:54.643Z,10.35
2019-03-24T05:09:24.114Z,11.15
2019-03-24T05:11:52.833Z,10.98
2019-03-24T05:14:21.442Z,10.72
2019-03-24T05:16:50.101Z,10.65
2019-03-24T05:19:18.757Z,11.43
2019-03-24T05:21:47.413Z,12.88
2019-03-24T05:24:16.065Z,12.55
2019-03-24T05:26:44.792Z,13.35
2019-03-24T05:29:13.455Z,12.68
2019-03-24T05:31:42.185Z,12.58
2019-03-24T05:34:10.934Z,12.30
2019-03-24T05:36:39.577Z,13.58
2019-03-24T05:39:08.254Z,11.73
2019-03-24T05:41:36.892Z,12.47
2019-03-24T05:44:05.633Z,12.15
2019-03-24T05:46:34.280Z,13.72
2019-03-24T05:49:02.954Z,12.50
2019-03-24T05:51:31.980Z,12.25
2019-03-24T05:54:00.635Z,11.08
2019-03-24T05:56:29.288Z,12.70
2019-03-24T05:58:58.030Z,13.10
2019-03-24T06:01:28.258Z,11.83
2019-03-24T06:03:56.973Z,12.90
2019-03-24T06:06:25.744Z,13.62
2019-03-24T06:08:54.396Z,13.40
2019-03-24T06:11:23.202Z,12.45
2019-03-24T06:13:51.856Z,11.78
2019-03-24T06:16:20.512Z,11.03
2019-03-24T06:18:49.181Z,12.70
2019-03-24T06:21:17.838Z,11.50
2019-03-24T06:23:46.503Z,11.85
2019-03-24T06:26:15.200Z,12.15
2019-03-24T06:28:43.840Z,11.75
2019-03-24T06:31:12.569Z,11.73
2019-03-24T06:33:41.228Z,10.75
2019-03-24T06:36:09.967Z,13.48
2019-03-24T06:38:38.632Z,11.43
2019-03-24T06:41:07.377Z,13.18
2019-03-24T06:43:36.142Z,12.40
2019-03-24T06:46:04.946Z,11.93
2019-03-24T06:48:33.610Z,11.70
2019-03-24T06:51:02.302Z,11.20
2019-03-24T06:53:30.957Z,12.35
2019-03-24T06:55:59.798Z,11.73
2019-03-24T06:58:28.489Z,11.40
2019-03-24T07:00:57.216Z,12.30
2019-03-24T07:03:25.902Z,11.08
2019-03-24T07:05:56.084Z,12.13
2019-03-24T07:08:24.798Z,12.13
2019-03-24T07:10:53.726Z,12.45
2019-03-24T07:13:24.088Z,12.63
2019-03-24T07:15:52.743Z,12.43
2019-03-24T07:18:21.470Z,10.82
2019-03-24T07:20:50.613Z,12.20
2019-03-24T07:23:19.281Z,12.95
2019-03-24T07:25:47.926Z,11.30
2019-03-24T07:28:16.674Z,12.93
2019-03-24T07:30:45.563Z,13.03
2019-03-24T07:33:14.313Z,15.08
2019-03-24T07:35:42.963Z,14.40
2019-03-24T07:38:11.621Z,15.00
2019-03-24T07:40:44.296Z,13.83
2019-03-24T07:43:12.957Z,14.05
2019-03-24T07:45:41.637Z,12.47
2019-03-24T07:48:18.645Z,11.68
2019-03-24T07:50:40.754Z,11.78
2019-03-24T07:53:11.118Z,13.38
2019-03-24T07:55:39.910Z,14.70
2019-03-24T07:58:08.727Z,13.90
2019-03-24T08:00:40.801Z,14.50
2019-03-24T08:03:09.488Z,14.35
2019-03-24T08:05:38.223Z,11.68
2019-03-24T08:08:07.106Z,12.93
2019-03-24T08:10:35.818Z,11.78
2019-03-24T08:13:06.891Z,12.45
2019-03-24T08:15:35.590Z,13.50
2019-03-24T08:18:04.358Z,12.28
2019-03-24T08:20:33.070Z,14.85
2019-03-24T08:23:01.839Z,14.80
2019-03-24T08:25:30.506Z,15.32
2019-03-24T08:27:59.155Z,15.90
2019-03-24T08:30:33.275Z,15.53
2019-03-24T08:33:02.150Z,16.48
2019-03-24T08:35:30.850Z,14.90
2019-03-24T08:37:59.651Z,14.33
2019-03-24T08:40:28.465Z,17.25
2019-03-24T08:42:57.130Z,17.75
2019-03-24T08:45:33.311Z,17.40
2019-03-24T08:48:05.169Z,16.97
2019-03-24T08:50:35.437Z,19.48
2019-03-24T08:53:04.436Z,21.02
2019-03-24T08:55:33.182Z,21.75
2019-03-24T08:58:05.324Z,22.32
2019-03-24T09:00:34.029Z,21.48
2019-03-24T09:03:02.695Z,23.70
2019-03-24T09:05:33.566Z,24.32
2019-03-24T09:08:01.675Z,22.58
2019-03-24T09:10:30.329Z,24.92
2019-03-24T09:12:59.002Z,25.40
2019-03-24T09:15:27.803Z,24.37
2019-03-24T09:17:56.473Z,22.98
2019-03-24T09:20:25.511Z,23.83
2019-03-24T09:22:54.237Z,23.42
2019-03-24T09:25:22.929Z,24.07
2019-03-24T09:27:51.547Z,22.52
2019-03-24T09:30:30.882Z,20.43
2019-03-24T09:32:59.724Z,21.07
2019-03-24T09:35:28.404Z,20.52
2019-03-24T09:37:57.279Z,19.37
2019-03-24T09:40:28.743Z,22.58
2019-03-24T09:43:00.546Z,22.48
2019-03-24T09:45:30.520Z,22.05
2019-03-24T09:47:59.679Z,22.10
2019-03-24T09:50:28.672Z,22.87
2019-03-24T09:52:57.879Z,22.40
2019-03-24T09:55:26.735Z,23.77
2019-03-24T09:57:55.623Z,22.45
2019-03-24T10:00:24.238Z,25.80
2019-03-24T10:02:53.047Z,23.35
2019-03-24T10:05:24.597Z,27.10
2019-03-24T10:07:53.390Z,23.27
2019-03-24T10:10:22.193Z,23.85
2019-03-24T10:12:50.889Z,26.07
2019-03-24T10:15:19.883Z,23.50
2019-03-24T10:17:53.434Z,25.35
2019-03-24T10:20:23.827Z,22.90
2019-03-24T10:22:52.499Z,24.23
2019-03-24T10:25:21.185Z,24.47
2019-03-24T10:27:49.833Z,26.25
2019-03-24T10:30:18.638Z,23.35
2019-03-24T10:32:50.129Z,23.75
2019-03-24T10:35:18.931Z,22.62
2019-03-24T10:37:47.600Z,23.05
2019-03-24T10:40:16.493Z,22.40
2019-03-24T10:42:45.233Z,21.80
2019-03-24T10:45:14.125Z,21.35
2019-03-24T10:47:42.874Z,21.12
2019-03-24T10:50:14.246Z,22.00
2019-03-24T10:52:43.000Z,20.72
2019-03-24T10:55:12.310Z,20.80
2019-03-24T10:57:41.108Z,21.57
2019-03-24T11:00:14.606Z,19.30
2019-03-24T11:02:43.282Z,18.92
2019-03-24T11:05:15.231Z,18.90
2019-03-24T11:07:44.121Z,17.52
2019-03-24T11:10:15.801Z,18.05
2019-03-24T11:12:44.474Z,16.80
2019-03-24T11:15:14.955Z,15.70
2019-03-24T11:17:44.379Z,14.93
2019-03-24T11:20:13.450Z,13.75
2019-03-24T11:22:42.448Z,10.20
2019-03-24T11:25:11.463Z,9.73
2019-03-24T11:27:40.270Z,9.78
2019-03-24T11:30:14.600Z,9.58
2019-03-24T11:32:43.477Z,10.28
2019-03-24T11:35:12.590Z,9.10
2019-03-24T11:37:42.294Z,7.72
2019-03-24T11:40:12.949Z,6.45
2019-03-24T11:42:42.371Z,6.37
2019-03-24T11:45:12.862Z,6.28
2019-03-24T11:47:41.610Z,6.83
2019-03-24T11:50:11.265Z,7.70
2019-03-24T11:52:41.601Z,7.05
2019-03-24T11:55:10.851Z,6.80
2019-03-24T11:57:39.623Z,7.17
2019-03-24T12:00:11.733Z,7.37
2019-03-24T12:02:40.546Z,8.55
2019-03-24T12:05:09.532Z,7.78
2019-03-24T12:07:38.370Z,7.92
2019-03-24T12:10:08.253Z,7.72
2019-03-24T12:12:37.083Z,7.90
2019-03-24T12:15:06.769Z,7.30
2019-03-24T12:17:35.426Z,7.58
2019-03-24T12:20:06.630Z,8.70
2019-03-24T12:22:35.353Z,9.75
2019-03-24T12:25:04.954Z,10.38
2019-03-24T12:27:33.750Z,11.70
2019-03-24T12:30:02.430Z,9.93
2019-03-24T12:32:31.223Z,8.75
2019-03-24T12:35:02.943Z,8.78
2019-03-24T12:37:31.581Z,10.43
2019-03-24T12:40:00.414Z,9.20
2019-03-24T12:42:29.061Z,5.87
2019-03-24T12:44:57.727Z,7.22
2019-03-24T12:47:26.391Z,8.88
2019-03-24T12:49:55.074Z,8.53
2019-03-24T12:52:23.702Z,8.18
2019-03-24T12:54:52.365Z,10.15
2019-03-24T12:57:21.018Z,8.83
2019-03-24T12:59:49.682Z,10.43
2019-03-24T13:02:18.334Z,9.88
2019-03-24T13:04:47.063Z,12.50
2019-03-24T13:07:15.849Z,11.48
2019-03-24T13:09:44.459Z,16.02
2019-03-24T13:12:13.229Z,16.20
2019-03-24T13:14:41.959Z,15.80
2019-03-24T13:17:10.830Z,18.60
2019-03-24T13:19:39.574Z,18.20
2019-03-24T13:22:08.338Z,16.65
2019-03-24T13:24:36.997Z,23.07
2019-03-24T13:27:05.877Z,16.77
2019-03-24T13:29:34.596Z,25.30
2019-03-24T13:32:03.327Z,22.07
2019-03-24T13:34:34.844Z,20.57
2019-03-24T13:37:04.315Z,21.65
2019-03-24T13:39:33.112Z,21.60
2019-03-24T13:42:01.997Z,21.62
2019-03-24T13:44:30.750Z,20.62
2019-03-24T13:46:59.411Z,19.48
2019-03-24T13:49:28.088Z,20.43
2019-03-24T13:51:56.766Z,18.65
2019-03-24T13:54:25.406Z,17.55
2019-03-24T13:56:54.147Z,22.13
2019-03-24T13:59:23.004Z,16.37
2019-03-24T14:01:51.745Z,18.32
2019-03-24T14:04:20.465Z,21.02
2019-03-24T14:06:49.151Z,19.65
2019-03-24T14:09:17.944Z,19.10
2019-03-24T14:11:46.725Z,17.80
2019-03-24T14:14:15.429Z,17.02
2019-03-24T14:16:46.511Z,16.55
2019-03-24T14:19:14.723Z,15.55
2019-03-24T14:21:43.388Z,17.02
2019-03-24T14:24:12.031Z,18.15
2019-03-24T14:26:40.757Z,18.45
2019-03-24T14:29:09.412Z,18.35
2019-03-24T14:31:38.070Z,19.60
2019-03-24T14:34:06.788Z,20.35
2019-03-24T14:36:35.528Z,16.65
2019-03-24T14:39:05.315Z,17.55
2019-03-24T14:41:34.157Z,16.17
2019-03-24T14:44:02.881Z,14.55
2019-03-24T14:46:31.538Z,13.83
2019-03-24T14:49:00.280Z,14.38
2019-03-24T14:51:28.992Z,16.23
2019-03-24T14:53:57.726Z,15.38
2019-03-24T14:56:26.559Z,14.68
2019-03-24T14:58:55.383Z,13.25
2019-03-24T15:01:24.053Z,13.35
2019-03-24T15:03:52.850Z,11.95
2019-03-24T15:06:21.636Z,10.55
2019-03-24T15:08:50.405Z,10.60
2019-03-24T15:11:19.146Z,12.30
2019-03-24T15:13:47.871Z,11.50
2019-03-24T15:16:16.532Z,12.25
2019-03-24T15:18:45.290Z,12.82
2019-03-24T15:21:13.932Z,13.05
2019-03-24T15:23:42.582Z,11.03
2019-03-24T15:26:11.254Z,11.03
2019-03-24T15:28:39.902Z,10.30
2019-03-24T15:31:08.690Z,10.23
2019-03-24T15:33:37.450Z,11.90
2019-03-24T15:36:06.191Z,11.75
2019-03-24T15:38:34.906Z,12.10
2019-03-24T15:41:06.231Z,11.28
2019-03-24T15:43:34.882Z,10.45
2019-03-24T15:46:03.755Z,10.10
2019-03-24T15:48:32.413Z,10.25
2019-03-24T15:51:01.079Z,11.40
2019-03-24T15:53:29.756Z,11.30
2019-03-24T15:55:58.409Z,11.78
2019-03-24T15:58:27.147Z,12.58
2019-03-24T16:00:55.871Z,11.30
2019-03-24T16:03:24.623Z,13.22
2019-03-24T16:05:53.396Z,11.63
2019-03-24T16:08:22.044Z,13.50
2019-03-24T16:10:50.769Z,11.83
2019-03-24T16:13:19.597Z,13.85
2019-03-24T16:15:48.258Z,12.98
2019-03-24T16:18:17.076Z,13.70
2019-03-24T16:20:45.724Z,15.05
2019-03-24T16:23:14.535Z,13.85
2019-03-24T16:25:43.433Z,12.33
2019-03-24T16:28:12.197Z,15.50
2019-03-24T16:30:40.862Z,14.65
2019-03-24T16:33:09.612Z,12.75
2019-03-24T16:35:38.452Z,14.35
2019-03-24T16:38:07.096Z,14.00
2019-03-24T16:40:35.763Z,15.20
2019-03-24T16:43:04.491Z,16.48
2019-03-24T16:45:33.224Z,14.03
2019-03-24T16:48:01.953Z,15.55
2019-03-24T16:50:30.696Z,15.93
2019-03-24T16:52:59.355Z,16.62
2019-03-24T16:55:28.012Z,17.48
2019-03-24T16:57:56.751Z,16.23
2019-03-24T17:00:25.402Z,16.57
2019-03-24T17:02:54.144Z,15.83
2019-03-24T17:05:22.934Z,17.45
2019-03-24T17:07:51.707Z,15.93
2019-03-24T17:10:20.452Z,16.32
2019-03-24T17:12:52.164Z,17.87
2019-03-24T17:15:23.919Z,15.68
2019-03-24T17:17:52.781Z,17.85
2019-03-24T17:20:21.522Z,18.85
2019-03-24T17:22:50.330Z,17.57
2019-03-24T17:25:19.185Z,15.58
2019-03-24T17:27:52.174Z,16.50
2019-03-24T17:30:25.274Z,16.60
2019-03-24T17:32:54.052Z,17.05
2019-03-24T17:35:23.022Z,16.30
2019-03-24T17:37:51.822Z,17.55
2019-03-24T17:40:20.597Z,18.30
2019-03-24T17:42:49.575Z,18.02
2019-03-24T17:45:18.430Z,19.17
2019-03-24T17:47:47.336Z,18.00
2019-03-24T17:50:18.073Z,19.57
2019-03-24T17:52:46.816Z,18.35
2019-03-24T17:55:26.895Z,19.02
2019-03-24T17:57:46.474Z,17.98
2019-03-24T18:00:18.960Z,20.05
2019-03-24T18:02:47.770Z,21.40
2019-03-24T18:05:16.685Z,18.85
2019-03-24T18:07:45.521Z,19.95
2019-03-24T18:10:14.790Z,21.90
2019-03-24T18:12:43.680Z,20.08
2019-03-24T18:15:14.558Z,22.10
2019-03-24T18:17:48.538Z,25.08
2019-03-24T18:20:20.277Z,23.18
2019-03-24T18:25:30.484Z,21.25
2019-03-24T18:27:59.544Z,22.22
2019-03-24T18:30:28.528Z,21.42
2019-03-24T18:32:57.292Z,22.77
2019-03-24T18:35:26.223Z,25.05
2019-03-24T18:38:02.380Z,25.30
2019-03-24T18:40:28.473Z,25.17
2019-03-24T18:43:04.351Z,23.35
2019-03-24T18:45:33.328Z,23.30
2019-03-24T18:48:03.863Z,25.37
2019-03-24T18:50:34.111Z,26.90
2019-03-24T18:53:02.778Z,28.20
2019-03-24T18:55:31.645Z,26.93
2019-03-24T18:58:00.415Z,26.48
2019-03-24T19:00:30.674Z,31.15
2019-03-24T19:03:02.176Z,29.20
2019-03-24T19:05:31.118Z,27.80
2019-03-24T19:08:00.267Z,27.80
2019-03-24T19:10:29.189Z,26.48
2019-03-24T19:12:58.019Z,27.82
2019-03-24T19:15:26.859Z,27.95
2019-03-24T19:17:55.618Z,29.30
2019-03-24T19:20:24.265Z,28.40
2019-03-24T19:22:52.992Z,28.70
2019-03-24T19:25:21.758Z,30.68
2019-03-24T19:27:50.605Z,29.40
2019-03-24T19:30:22.289Z,27.30
2019-03-24T19:32:51.311Z,28.62
2019-03-24T19:35:20.137Z,28.40
2019-03-24T19:37:49.481Z,27.90
2019-03-24T19:40:31.938Z,30.02
2019-03-24T19:43:00.742Z,29.48
2019-03-24T19:45:29.502Z,29.90
2019-03-24T19:47:58.397Z,28.73
2019-03-24T19:50:27.215Z,27.58
2019-03-24T19:52:55.890Z,29.50
2019-03-24T19:55:24.569Z,29.80
2019-03-24T19:57:53.281Z,28.27
2019-03-24T20:00:22.019Z,27.50
2019-03-24T20:02:50.742Z,28.50
2019-03-24T20:05:19.480Z,28.50
2019-03-24T20:07:48.574Z,31.33
2019-03-24T20:10:17.278Z,27.40
2019-03-24T20:12:46.859Z,27.65
2019-03-24T20:15:15.642Z,27.73
2019-03-24T20:17:44.358Z,28.95
2019-03-24T20:20:13.202Z,28.07
2019-03-24T20:22:42.501Z,30.95
2019-03-24T20:25:11.844Z,30.48
2019-03-24T20:27:41.331Z,32.05
2019-03-24T20:30:14.387Z,30.25
2019-03-24T20:32:43.136Z,32.55
2019-03-24T20:35:13.323Z,31.93
2019-03-24T20:37:42.065Z,32.98
2019-03-24T20:40:11.055Z,34.63
2019-03-24T20:42:39.763Z,35.98
2019-03-24T20:45:09.770Z,34.03
2019-03-24T20:47:38.469Z,31.93
2019-03-24T20:50:07.970Z,34.78
2019-03-24T20:52:36.699Z,34.20
2019-03-24T20:55:08.636Z,36.13
2019-03-24T20:57:38.602Z,32.65
2019-03-24T21:00:08.044Z,34.25
2019-03-24T21:02:36.769Z,34.65
2019-03-24T21:05:06.680Z,34.38
2019-03-24T21:07:35.401Z,35.05
2019-03-24T21:10:07.539Z,33.63
2019-03-24T21:12:36.326Z,33.25
2019-03-24T21:15:07.666Z,34.38
2019-03-24T21:17:38.442Z,34.15
2019-03-24T21:20:10.575Z,32.38
2019-03-24T21:22:39.462Z,31.95
2019-03-24T21:25:08.776Z,34.53
2019-03-24T21:27:37.504Z,33.85
2019-03-24T21:30:07.871Z,34.53
2019-03-24T21:32:36.550Z,33.30
2019-03-24T21:35:06.964Z,32.67
2019-03-24T21:37:35.703Z,35.73
2019-03-24T21:40:08.313Z,35.50
2019-03-24T21:42:36.791Z,33.28
2019-03-24T21:45:09.702Z,33.05
2019-03-24T21:47:38.432Z,34.92
2019-03-24T21:50:08.038Z,33.92
2019-03-24T21:52:36.710Z,35.85
2019-03-24T21:55:06.427Z,33.00
2019-03-24T21:57:35.109Z,35.23
2019-03-24T22:00:06.019Z,34.70
2019-03-24T22:02:34.677Z,34.00
2019-03-24T22:05:03.900Z,34.53
2019-03-24T22:07:32.682Z,31.97
2019-03-24T22:10:02.401Z,32.55
2019-03-24T22:12:31.609Z,35.33
2019-03-24T22:15:00.326Z,35.83
2019-03-24T22:17:29.070Z,33.75
2019-03-24T22:19:58.597Z,32.10
2019-03-24T22:22:27.254Z,33.63
2019-03-24T22:24:55.922Z,34.18
2019-03-24T22:27:24.590Z,32.65
2019-03-24T22:29:53.256Z,31.10
2019-03-24T22:32:21.972Z,32.65
2019-03-24T22:34:50.649Z,34.88
2019-03-24T22:37:19.421Z,34.35
2019-03-24T22:39:48.263Z,33.58
2019-03-24T22:42:16.917Z,33.38
2019-03-24T22:44:45.586Z,34.03
2019-03-24T22:47:14.321Z,33.40
2019-03-24T22:49:43.037Z,32.73
2019-03-24T22:52:11.642Z,32.78
2019-03-24T22:54:40.340Z,35.60
2019-03-24T22:57:08.995Z,33.65
2019-03-24T22:59:42.009Z,33.75
2019-03-24T23:02:08.094Z,32.33
2019-03-24T23:04:36.755Z,34.75
2019-03-24T23:07:05.469Z,31.95
2019-03-24T23:09:34.123Z,34.18
2019-03-24T23:12:02.782Z,32.38
2019-03-24T23:14:31.429Z,33.13
2019-03-24T23:17:00.114Z,34.40
2019-03-24T23:19:28.762Z,34.53
2019-03-24T23:21:57.431Z,31.65
2019-03-24T23:24:26.078Z,31.97
2019-03-24T23:26:54.846Z,31.73
2019-03-24T23:29:23.501Z,34.55
2019-03-24T23:31:52.152Z,34.03
2019-03-24T23:34:20.820Z,33.38
2019-03-24T23:36:49.461Z,32.20
2019-03-24T23:39:18.132Z,34.18
2019-03-24T23:41:46.781Z,33.08
2019-03-24T23:44:15.438Z,33.85
2019-03-24T23:46:44.164Z,31.00
2019-03-24T23:49:12.858Z,31.73
2019-03-24T23:51:41.515Z,32.23
2019-03-24T23:54:10.161Z,32.08
2019-03-24T23:56:38.842Z,32.23
2019-03-24T23:59:07.486Z,29.55
